sensor_id;sensor_type;location;lat;lon;timestamp;temperature;humidity
31819;DHT22;18384;48.860;9.188;2022-12-29T00:00:05;9.60;99.90
31819;DHT22;18384;48.860;9.188;2022-12-29T00:02:33;9.60;99.90
31819;DHT22;18384;48.860;9.188;2022-12-29T00:04:59;9.70;99.90
31819;DHT22;18384;48.860;9.188;2022-12-29T00:07:25;9.70;99.90
31819;DHT22;18384;48.860;9.188;2022-12-29T00:09:51;9.70;99.90
31819;DHT22;18384;48.860;9.188;2022-12-29T00:12:17;9.80;99.90
31819;DHT22;18384;48.860;9.188;2022-12-29T00:14:43;9.80;99.90
31819;DHT22;18384;48.860;9.188;2022-12-29T00:17:28;9.90;99.90
31819;DHT22;18384;48.860;9.188;2022-12-29T00:19:54;9.90;99.90
31819;DHT22;18384;48.860;9.188;2022-12-29T00:22:38;9.90;99.90
31819;DHT22;18384;48.860;9.188;2022-12-29T00:25:23;9.90;99.90
31819;DHT22;18384;48.860;9.188;2022-12-29T00:28:09;10.00;99.90
31819;DHT22;18384;48.860;9.188;2022-12-29T00:30:58;10.00;99.90
31819;DHT22;18384;48.860;9.188;2022-12-29T00:33:43;10.00;99.90
31819;DHT22;18384;48.860;9.188;2022-12-29T00:36:35;10.00;99.90
31819;DHT22;18384;48.860;9.188;2022-12-29T00:39:07;10.00;99.80
31819;DHT22;18384;48.860;9.188;2022-12-29T00:41:56;10.10;99.90
31819;DHT22;18384;48.860;9.188;2022-12-29T00:44:45;10.10;99.90
31819;DHT22;18384;48.860;9.188;2022-12-29T00:47:11;10.10;99.90
31819;DHT22;18384;48.860;9.188;2022-12-29T00:49:37;10.10;99.90
31819;DHT22;18384;48.860;9.188;2022-12-29T00:52:05;10.10;99.80
31819;DHT22;18384;48.860;9.188;2022-12-29T00:54:35;10.20;99.90
31819;DHT22;18384;48.860;9.188;2022-12-29T00:57:04;10.20;99.90
31819;DHT22;18384;48.860;9.188;2022-12-29T00:59:32;10.20;99.80
31819;DHT22;18384;48.860;9.188;2022-12-29T01:01:59;10.20;99.90
31819;DHT22;18384;48.860;9.188;2022-12-29T01:04:26;10.20;99.90
31819;DHT22;18384;48.860;9.188;2022-12-29T01:06:52;10.20;99.70
31819;DHT22;18384;48.860;9.188;2022-12-29T01:09:19;10.20;99.90
31819;DHT22;18384;48.860;9.188;2022-12-29T01:12:06;10.20;99.70
31819;DHT22;18384;48.860;9.188;2022-12-29T01:14:33;10.30;99.80
31819;DHT22;18384;48.860;9.188;2022-12-29T01:16:59;10.30;99.70
31819;DHT22;18384;48.860;9.188;2022-12-29T01:19:26;10.30;99.70
31819;DHT22;18384;48.860;9.188;2022-12-29T01:21:52;10.30;99.90
31819;DHT22;18384;48.860;9.188;2022-12-29T01:24:20;10.30;99.90
31819;DHT22;18384;48.860;9.188;2022-12-29T01:26:46;10.30;99.70
31819;DHT22;18384;48.860;9.188;2022-12-29T01:29:14;10.40;99.60
31819;DHT22;18384;48.860;9.188;2022-12-29T01:31:40;10.40;99.60
31819;DHT22;18384;48.860;9.188;2022-12-29T01:34:07;10.40;99.70
31819;DHT22;18384;48.860;9.188;2022-12-29T01:36:33;10.40;99.70
31819;DHT22;18384;48.860;9.188;2022-12-29T01:39:00;10.40;99.80
31819;DHT22;18384;48.860;9.188;2022-12-29T01:41:26;10.40;99.60
31819;DHT22;18384;48.860;9.188;2022-12-29T01:43:57;10.40;99.50
31819;DHT22;18384;48.860;9.188;2022-12-29T01:46:39;10.40;99.60
31819;DHT22;18384;48.860;9.188;2022-12-29T01:49:19;11.10;99.70
31819;DHT22;18384;48.860;9.188;2022-12-29T01:51:55;10.40;99.50
31819;DHT22;18384;48.860;9.188;2022-12-29T01:54:27;10.40;99.40
31819;DHT22;18384;48.860;9.188;2022-12-29T01:56:58;10.40;99.40
31819;DHT22;18384;48.860;9.188;2022-12-29T01:59:33;10.50;99.50
31819;DHT22;18384;48.860;9.188;2022-12-29T02:02:02;10.50;99.50
31819;DHT22;18384;48.860;9.188;2022-12-29T02:04:34;11.70;99.80
31819;DHT22;18384;48.860;9.188;2022-12-29T02:07:07;10.50;99.70
31819;DHT22;18384;48.860;9.188;2022-12-29T02:09:35;10.50;99.60
31819;DHT22;18384;48.860;9.188;2022-12-29T02:12:02;10.50;99.50
31819;DHT22;18384;48.860;9.188;2022-12-29T02:14:28;10.50;99.50
31819;DHT22;18384;48.860;9.188;2022-12-29T02:34:47;10.60;99.50
31819;DHT22;18384;48.860;9.188;2022-12-29T02:37:52;10.50;99.60
31819;DHT22;18384;48.860;9.188;2022-12-29T02:41:34;10.50;99.70
31819;DHT22;18384;48.860;9.188;2022-12-29T02:44:37;10.60;99.50
31819;DHT22;18384;48.860;9.188;2022-12-29T02:47:39;10.50;99.60
31819;DHT22;18384;48.860;9.188;2022-12-29T02:50:36;10.50;99.70
31819;DHT22;18384;48.860;9.188;2022-12-29T02:53:11;10.60;99.60
31819;DHT22;18384;48.860;9.188;2022-12-29T02:55:48;10.60;99.70
31819;DHT22;18384;48.860;9.188;2022-12-29T02:58:20;10.60;99.60
31819;DHT22;18384;48.860;9.188;2022-12-29T03:01:21;10.60;99.50
31819;DHT22;18384;48.860;9.188;2022-12-29T03:04:54;10.60;99.90
31819;DHT22;18384;48.860;9.188;2022-12-29T03:17:54;10.50;99.90
31819;DHT22;18384;48.860;9.188;2022-12-29T03:20:52;10.60;99.90
31819;DHT22;18384;48.860;9.188;2022-12-29T03:23:22;10.50;99.90
31819;DHT22;18384;48.860;9.188;2022-12-29T03:25:52;10.50;99.90
31819;DHT22;18384;48.860;9.188;2022-12-29T03:28:30;10.50;99.70
31819;DHT22;18384;48.860;9.188;2022-12-29T03:31:00;10.60;99.80
31819;DHT22;18384;48.860;9.188;2022-12-29T03:33:29;10.60;99.90
31819;DHT22;18384;48.860;9.188;2022-12-29T03:36:03;10.60;99.70
31819;DHT22;18384;48.860;9.188;2022-12-29T03:38:42;10.60;99.70
31819;DHT22;18384;48.860;9.188;2022-12-29T03:41:14;10.60;99.80
31819;DHT22;18384;48.860;9.188;2022-12-29T03:43:46;9.60;99.40
31819;DHT22;18384;48.860;9.188;2022-12-29T03:46:13;10.70;99.80
31819;DHT22;18384;48.860;9.188;2022-12-29T03:48:39;10.60;99.70
31819;DHT22;18384;48.860;9.188;2022-12-29T03:51:05;10.60;99.80
31819;DHT22;18384;48.860;9.188;2022-12-29T03:53:31;10.60;99.60
31819;DHT22;18384;48.860;9.188;2022-12-29T03:55:57;10.60;99.60
31819;DHT22;18384;48.860;9.188;2022-12-29T03:58:23;10.60;99.60
31819;DHT22;18384;48.860;9.188;2022-12-29T04:00:49;10.60;99.80
31819;DHT22;18384;48.860;9.188;2022-12-29T04:03:16;10.50;99.90
31819;DHT22;18384;48.860;9.188;2022-12-29T04:05:42;10.60;99.80
31819;DHT22;18384;48.860;9.188;2022-12-29T04:08:08;10.50;99.80
31819;DHT22;18384;48.860;9.188;2022-12-29T04:10:34;10.50;99.90
31819;DHT22;18384;48.860;9.188;2022-12-29T04:13:00;10.40;99.90
31819;DHT22;18384;48.860;9.188;2022-12-29T04:15:26;10.40;99.90
31819;DHT22;18384;48.860;9.188;2022-12-29T04:17:52;10.30;99.90
31819;DHT22;18384;48.860;9.188;2022-12-29T04:20:18;10.30;99.90
31819;DHT22;18384;48.860;9.188;2022-12-29T04:23:04;10.40;99.90
31819;DHT22;18384;48.860;9.188;2022-12-29T04:25:32;10.40;99.90
31819;DHT22;18384;48.860;9.188;2022-12-29T04:27:59;10.40;99.90
31819;DHT22;18384;48.860;9.188;2022-12-29T04:30:25;10.50;99.90
31819;DHT22;18384;48.860;9.188;2022-12-29T04:32:51;10.50;99.90
31819;DHT22;18384;48.860;9.188;2022-12-29T04:35:17;10.50;99.90
31819;DHT22;18384;48.860;9.188;2022-12-29T04:37:43;10.60;99.90
31819;DHT22;18384;48.860;9.188;2022-12-29T04:40:10;10.50;99.90
31819;DHT22;18384;48.860;9.188;2022-12-29T04:42:37;10.50;99.90
31819;DHT22;18384;48.860;9.188;2022-12-29T04:45:03;10.50;99.90
31819;DHT22;18384;48.860;9.188;2022-12-29T04:47:29;10.40;99.90
31819;DHT22;18384;48.860;9.188;2022-12-29T04:49:55;10.40;99.90
31819;DHT22;18384;48.860;9.188;2022-12-29T04:52:22;10.30;99.90
31819;DHT22;18384;48.860;9.188;2022-12-29T04:54:48;10.30;99.90
31819;DHT22;18384;48.860;9.188;2022-12-29T04:57:14;10.30;99.90
31819;DHT22;18384;48.860;9.188;2022-12-29T04:59:40;10.30;99.90
31819;DHT22;18384;48.860;9.188;2022-12-29T05:02:06;10.30;99.90
31819;DHT22;18384;48.860;9.188;2022-12-29T05:04:32;10.30;99.90
31819;DHT22;18384;48.860;9.188;2022-12-29T05:06:58;10.40;99.90
31819;DHT22;18384;48.860;9.188;2022-12-29T05:09:24;10.40;99.90
31819;DHT22;18384;48.860;9.188;2022-12-29T05:11:50;10.40;99.90
31819;DHT22;18384;48.860;9.188;2022-12-29T05:14:17;10.40;99.90
31819;DHT22;18384;48.860;9.188;2022-12-29T05:16:43;10.40;99.90
31819;DHT22;18384;48.860;9.188;2022-12-29T05:19:09;10.40;99.90
31819;DHT22;18384;48.860;9.188;2022-12-29T05:21:35;10.40;99.90
31819;DHT22;18384;48.860;9.188;2022-12-29T05:24:01;10.40;99.90
31819;DHT22;18384;48.860;9.188;2022-12-29T05:26:27;10.30;99.90
31819;DHT22;18384;48.860;9.188;2022-12-29T05:28:53;10.40;99.90
31819;DHT22;18384;48.860;9.188;2022-12-29T05:31:19;10.40;99.90
31819;DHT22;18384;48.860;9.188;2022-12-29T05:33:45;10.50;99.90
31819;DHT22;18384;48.860;9.188;2022-12-29T05:36:12;10.60;99.90
31819;DHT22;18384;48.860;9.188;2022-12-29T05:38:38;10.60;99.90
31819;DHT22;18384;48.860;9.188;2022-12-29T05:41:04;10.60;99.90
31819;DHT22;18384;48.860;9.188;2022-12-29T05:43:31;10.70;99.90
31819;DHT22;18384;48.860;9.188;2022-12-29T05:45:57;10.70;99.90
31819;DHT22;18384;48.860;9.188;2022-12-29T05:48:23;10.80;99.90
31819;DHT22;18384;48.860;9.188;2022-12-29T05:50:50;10.90;99.90
31819;DHT22;18384;48.860;9.188;2022-12-29T05:53:17;11.00;99.90
31819;DHT22;18384;48.860;9.188;2022-12-29T05:55:46;11.00;99.90
31819;DHT22;18384;48.860;9.188;2022-12-29T05:58:12;11.10;99.90
31819;DHT22;18384;48.860;9.188;2022-12-29T06:00:39;11.20;99.90
31819;DHT22;18384;48.860;9.188;2022-12-29T06:03:05;11.20;99.90
31819;DHT22;18384;48.860;9.188;2022-12-29T06:05:32;11.20;99.90
31819;DHT22;18384;48.860;9.188;2022-12-29T06:07:58;11.20;99.90
31819;DHT22;18384;48.860;9.188;2022-12-29T06:10:24;11.20;99.90
31819;DHT22;18384;48.860;9.188;2022-12-29T06:12:50;11.20;99.90
31819;DHT22;18384;48.860;9.188;2022-12-29T06:15:16;11.10;99.90
31819;DHT22;18384;48.860;9.188;2022-12-29T06:17:42;11.00;99.90
31819;DHT22;18384;48.860;9.188;2022-12-29T06:20:09;11.00;99.90
31819;DHT22;18384;48.860;9.188;2022-12-29T06:22:36;11.00;99.90
31819;DHT22;18384;48.860;9.188;2022-12-29T06:25:02;10.90;99.90
31819;DHT22;18384;48.860;9.188;2022-12-29T06:27:28;11.00;99.90
31819;DHT22;18384;48.860;9.188;2022-12-29T06:29:55;11.00;99.90
31819;DHT22;18384;48.860;9.188;2022-12-29T06:32:21;11.00;99.90
31819;DHT22;18384;48.860;9.188;2022-12-29T06:34:47;10.90;99.90
31819;DHT22;18384;48.860;9.188;2022-12-29T06:37:13;11.00;99.90
31819;DHT22;18384;48.860;9.188;2022-12-29T06:39:40;11.00;99.90
31819;DHT22;18384;48.860;9.188;2022-12-29T06:42:06;11.00;99.90
31819;DHT22;18384;48.860;9.188;2022-12-29T06:44:33;11.00;99.90
31819;DHT22;18384;48.860;9.188;2022-12-29T06:47:00;11.00;99.90
31819;DHT22;18384;48.860;9.188;2022-12-29T06:49:26;11.00;99.90
31819;DHT22;18384;48.860;9.188;2022-12-29T06:51:52;11.10;99.90
31819;DHT22;18384;48.860;9.188;2022-12-29T06:54:18;11.10;99.90
31819;DHT22;18384;48.860;9.188;2022-12-29T06:56:44;11.10;99.90
31819;DHT22;18384;48.860;9.188;2022-12-29T06:59:13;11.10;99.90
31819;DHT22;18384;48.860;9.188;2022-12-29T07:01:39;11.00;99.90
31819;DHT22;18384;48.860;9.188;2022-12-29T07:04:05;11.00;99.90
31819;DHT22;18384;48.860;9.188;2022-12-29T07:06:31;11.00;99.90
31819;DHT22;18384;48.860;9.188;2022-12-29T07:08:57;11.00;99.90
31819;DHT22;18384;48.860;9.188;2022-12-29T07:11:24;10.90;99.90
31819;DHT22;18384;48.860;9.188;2022-12-29T07:13:50;10.90;99.90
31819;DHT22;18384;48.860;9.188;2022-12-29T07:16:16;10.90;99.90
31819;DHT22;18384;48.860;9.188;2022-12-29T07:18:42;10.90;99.90
31819;DHT22;18384;48.860;9.188;2022-12-29T07:21:08;10.90;99.90
31819;DHT22;18384;48.860;9.188;2022-12-29T07:23:35;10.90;99.90
31819;DHT22;18384;48.860;9.188;2022-12-29T07:26:03;10.80;99.90
31819;DHT22;18384;48.860;9.188;2022-12-29T07:28:31;10.80;99.90
31819;DHT22;18384;48.860;9.188;2022-12-29T07:30:58;10.90;99.90
31819;DHT22;18384;48.860;9.188;2022-12-29T07:33:25;10.90;99.90
31819;DHT22;18384;48.860;9.188;2022-12-29T07:35:51;10.80;99.90
31819;DHT22;18384;48.860;9.188;2022-12-29T07:38:17;10.90;99.90
31819;DHT22;18384;48.860;9.188;2022-12-29T07:40:43;10.90;99.90
31819;DHT22;18384;48.860;9.188;2022-12-29T07:43:09;10.80;99.90
31819;DHT22;18384;48.860;9.188;2022-12-29T07:45:35;10.80;99.90
31819;DHT22;18384;48.860;9.188;2022-12-29T07:48:01;10.80;99.90
31819;DHT22;18384;48.860;9.188;2022-12-29T07:50:28;10.80;99.90
31819;DHT22;18384;48.860;9.188;2022-12-29T07:52:54;10.80;99.90
31819;DHT22;18384;48.860;9.188;2022-12-29T07:55:20;10.80;99.90
31819;DHT22;18384;48.860;9.188;2022-12-29T07:57:46;10.80;99.90
31819;DHT22;18384;48.860;9.188;2022-12-29T08:00:13;10.80;99.90
31819;DHT22;18384;48.860;9.188;2022-12-29T08:02:40;10.80;99.90
31819;DHT22;18384;48.860;9.188;2022-12-29T08:05:06;10.90;99.90
31819;DHT22;18384;48.860;9.188;2022-12-29T08:07:32;10.90;99.90
31819;DHT22;18384;48.860;9.188;2022-12-29T08:09:58;11.00;99.90
31819;DHT22;18384;48.860;9.188;2022-12-29T08:12:24;11.00;99.90
31819;DHT22;18384;48.860;9.188;2022-12-29T08:14:50;11.00;99.90
31819;DHT22;18384;48.860;9.188;2022-12-29T08:17:17;11.10;99.80
31819;DHT22;18384;48.860;9.188;2022-12-29T08:19:43;11.10;99.80
31819;DHT22;18384;48.860;9.188;2022-12-29T08:22:09;11.20;99.70
31819;DHT22;18384;48.860;9.188;2022-12-29T08:24:35;11.20;99.70
31819;DHT22;18384;48.860;9.188;2022-12-29T08:27:01;11.30;99.50
31819;DHT22;18384;48.860;9.188;2022-12-29T08:29:27;11.30;99.60
31819;DHT22;18384;48.860;9.188;2022-12-29T08:31:54;11.80;99.70
31819;DHT22;18384;48.860;9.188;2022-12-29T08:34:20;11.40;99.50
31819;DHT22;18384;48.860;9.188;2022-12-29T08:36:46;11.40;99.40
31819;DHT22;18384;48.860;9.188;2022-12-29T08:39:12;11.40;99.40
31819;DHT22;18384;48.860;9.188;2022-12-29T08:41:38;11.40;99.30
31819;DHT22;18384;48.860;9.188;2022-12-29T08:44:04;11.50;99.40
31819;DHT22;18384;48.860;9.188;2022-12-29T08:46:31;11.40;99.40
31819;DHT22;18384;48.860;9.188;2022-12-29T08:48:57;11.50;99.40
31819;DHT22;18384;48.860;9.188;2022-12-29T08:51:23;11.40;99.40
31819;DHT22;18384;48.860;9.188;2022-12-29T08:53:49;11.50;99.30
31819;DHT22;18384;48.860;9.188;2022-12-29T08:56:16;11.50;99.50
31819;DHT22;18384;48.860;9.188;2022-12-29T08:58:42;11.50;99.30
31819;DHT22;18384;48.860;9.188;2022-12-29T09:01:09;11.50;99.20
31819;DHT22;18384;48.860;9.188;2022-12-29T09:03:36;11.60;99.20
31819;DHT22;18384;48.860;9.188;2022-12-29T09:06:02;11.60;99.30
31819;DHT22;18384;48.860;9.188;2022-12-29T09:08:28;11.60;99.20
31819;DHT22;18384;48.860;9.188;2022-12-29T09:10:54;11.70;99.20
31819;DHT22;18384;48.860;9.188;2022-12-29T09:13:20;11.80;99.50
31819;DHT22;18384;48.860;9.188;2022-12-29T09:15:47;12.40;99.30
31819;DHT22;18384;48.860;9.188;2022-12-29T09:18:13;11.90;99.10
31819;DHT22;18384;48.860;9.188;2022-12-29T09:20:39;12.00;99.10
31819;DHT22;18384;48.860;9.188;2022-12-29T09:23:05;12.00;99.00
31819;DHT22;18384;48.860;9.188;2022-12-29T09:25:31;12.10;99.20
31819;DHT22;18384;48.860;9.188;2022-12-29T09:27:58;12.10;99.20
31819;DHT22;18384;48.860;9.188;2022-12-29T09:30:24;12.20;98.90
31819;DHT22;18384;48.860;9.188;2022-12-29T09:32:50;12.30;98.80
31819;DHT22;18384;48.860;9.188;2022-12-29T09:35:16;12.30;99.00
31819;DHT22;18384;48.860;9.188;2022-12-29T09:37:42;12.40;99.00
31819;DHT22;18384;48.860;9.188;2022-12-29T09:40:24;12.40;98.90
31819;DHT22;18384;48.860;9.188;2022-12-29T09:43:26;12.50;98.80
31819;DHT22;18384;48.860;9.188;2022-12-29T09:46:27;12.50;99.00
31819;DHT22;18384;48.860;9.188;2022-12-29T09:50:48;12.50;99.00
31819;DHT22;18384;48.860;9.188;2022-12-29T09:53:42;12.60;99.10
31819;DHT22;18384;48.860;9.188;2022-12-29T09:56:47;12.70;98.70
31819;DHT22;18384;48.860;9.188;2022-12-29T09:59:21;12.70;98.60
31819;DHT22;18384;48.860;9.188;2022-12-29T10:02:08;12.70;98.60
31819;DHT22;18384;48.860;9.188;2022-12-29T10:04:43;12.70;98.50
31819;DHT22;18384;48.860;9.188;2022-12-29T10:07:30;12.60;98.70
31819;DHT22;18384;48.860;9.188;2022-12-29T10:10:23;12.60;98.50
31819;DHT22;18384;48.860;9.188;2022-12-29T10:14:29;12.60;98.60
31819;DHT22;18384;48.860;9.188;2022-12-29T10:22:09;12.70;98.40
31819;DHT22;18384;48.860;9.188;2022-12-29T10:25:23;12.70;98.40
31819;DHT22;18384;48.860;9.188;2022-12-29T10:27:53;12.80;98.70
31819;DHT22;18384;48.860;9.188;2022-12-29T10:30:22;12.80;98.40
31819;DHT22;18384;48.860;9.188;2022-12-29T10:33:01;12.90;98.60
31819;DHT22;18384;48.860;9.188;2022-12-29T10:35:34;12.90;98.20
31819;DHT22;18384;48.860;9.188;2022-12-29T10:38:20;13.00;98.70
31819;DHT22;18384;48.860;9.188;2022-12-29T10:41:34;13.00;98.50
31819;DHT22;18384;48.860;9.188;2022-12-29T10:44:04;13.10;98.50
31819;DHT22;18384;48.860;9.188;2022-12-29T10:46:35;13.10;98.50
31819;DHT22;18384;48.860;9.188;2022-12-29T10:49:02;13.10;98.60
31819;DHT22;18384;48.860;9.188;2022-12-29T10:51:32;13.00;98.80
31819;DHT22;18384;48.860;9.188;2022-12-29T10:54:11;13.10;98.80
31819;DHT22;18384;48.860;9.188;2022-12-29T10:57:01;13.10;98.80
31819;DHT22;18384;48.860;9.188;2022-12-29T10:59:33;13.20;99.10
31819;DHT22;18384;48.860;9.188;2022-12-29T11:06:57;13.20;99.10
31819;DHT22;18384;48.860;9.188;2022-12-29T11:09:32;13.40;99.40
31819;DHT22;18384;48.860;9.188;2022-12-29T11:11:59;13.40;99.50
31819;DHT22;18384;48.860;9.188;2022-12-29T11:14:29;13.40;99.40
31819;DHT22;18384;48.860;9.188;2022-12-29T11:16:57;11.90;98.50
31819;DHT22;18384;48.860;9.188;2022-12-29T11:19:29;13.60;98.60
31819;DHT22;18384;48.860;9.188;2022-12-29T11:22:22;13.60;98.60
31819;DHT22;18384;48.860;9.188;2022-12-29T11:24:54;13.70;98.80
31819;DHT22;18384;48.860;9.188;2022-12-29T11:27:23;13.70;98.20
31819;DHT22;18384;48.860;9.188;2022-12-29T11:29:52;13.70;97.80
31819;DHT22;18384;48.860;9.188;2022-12-29T11:32:24;13.70;98.10
31819;DHT22;18384;48.860;9.188;2022-12-29T11:34:51;13.70;98.00
31819;DHT22;18384;48.860;9.188;2022-12-29T11:37:36;13.70;98.10
31819;DHT22;18384;48.860;9.188;2022-12-29T11:40:14;13.70;97.90
31819;DHT22;18384;48.860;9.188;2022-12-29T11:42:52;13.70;97.80
31819;DHT22;18384;48.860;9.188;2022-12-29T11:45:20;13.60;98.10
31819;DHT22;18384;48.860;9.188;2022-12-29T11:47:54;13.50;97.70
31819;DHT22;18384;48.860;9.188;2022-12-29T11:50:29;13.40;97.60
31819;DHT22;18384;48.860;9.188;2022-12-29T11:53:14;13.40;97.90
31819;DHT22;18384;48.860;9.188;2022-12-29T11:56:04;13.40;97.70
31819;DHT22;18384;48.860;9.188;2022-12-29T11:58:35;13.30;97.60
31819;DHT22;18384;48.860;9.188;2022-12-29T12:04:10;13.10;97.70
31819;DHT22;18384;48.860;9.188;2022-12-29T12:06:48;13.10;97.80
31819;DHT22;18384;48.860;9.188;2022-12-29T12:09:27;12.80;97.80
31819;DHT22;18384;48.860;9.188;2022-12-29T12:11:58;13.10;98.00
31819;DHT22;18384;48.860;9.188;2022-12-29T12:14:55;13.00;98.30
31819;DHT22;18384;48.860;9.188;2022-12-29T12:18:18;12.90;99.30
31819;DHT22;18384;48.860;9.188;2022-12-29T12:21:13;12.80;99.90
31819;DHT22;18384;48.860;9.188;2022-12-29T12:28:01;12.80;99.90
31819;DHT22;18384;48.860;9.188;2022-12-29T12:32:19;12.80;99.90
31819;DHT22;18384;48.860;9.188;2022-12-29T12:34:48;12.80;99.90
31819;DHT22;18384;48.860;9.188;2022-12-29T12:38:54;12.80;99.90
31819;DHT22;18384;48.860;9.188;2022-12-29T12:49:39;13.00;99.90
31819;DHT22;18384;48.860;9.188;2022-12-29T13:00:42;13.20;99.90
31819;DHT22;18384;48.860;9.188;2022-12-29T13:03:50;13.40;99.90
31819;DHT22;18384;48.860;9.188;2022-12-29T13:08:29;13.30;99.90
31819;DHT22;18384;48.860;9.188;2022-12-29T13:14:53;13.40;99.90
31819;DHT22;18384;48.860;9.188;2022-12-29T13:25:40;13.30;99.90
31819;DHT22;18384;48.860;9.188;2022-12-29T13:28:58;13.20;99.90
31819;DHT22;18384;48.860;9.188;2022-12-29T13:35:21;13.10;99.90
31819;DHT22;18384;48.860;9.188;2022-12-29T13:39:34;13.10;99.90
31819;DHT22;18384;48.860;9.188;2022-12-29T13:42:04;13.00;99.90
31819;DHT22;18384;48.860;9.188;2022-12-29T13:45:06;12.90;99.90
31819;DHT22;18384;48.860;9.188;2022-12-29T13:47:57;12.90;99.90
31819;DHT22;18384;48.860;9.188;2022-12-29T13:50:36;15.20;99.90
31819;DHT22;18384;48.860;9.188;2022-12-29T13:56:15;15.20;99.90
31819;DHT22;18384;48.860;9.188;2022-12-29T14:03:27;12.70;99.90
31819;DHT22;18384;48.860;9.188;2022-12-29T14:08:44;12.80;99.90
31819;DHT22;18384;48.860;9.188;2022-12-29T14:11:12;12.80;99.90
31819;DHT22;18384;48.860;9.188;2022-12-29T14:13:43;12.90;99.90
31819;DHT22;18384;48.860;9.188;2022-12-29T14:18:04;12.80;99.90
31819;DHT22;18384;48.860;9.188;2022-12-29T14:20:46;12.80;99.90
31819;DHT22;18384;48.860;9.188;2022-12-29T14:23:47;12.70;99.90
31819;DHT22;18384;48.860;9.188;2022-12-29T14:26:18;12.70;99.90
31819;DHT22;18384;48.860;9.188;2022-12-29T14:33:12;14.90;99.90
31819;DHT22;18384;48.860;9.188;2022-12-29T14:35:43;12.80;99.90
31819;DHT22;18384;48.860;9.188;2022-12-29T14:38:17;12.80;99.90
31819;DHT22;18384;48.860;9.188;2022-12-29T14:40:45;12.70;99.90
31819;DHT22;18384;48.860;9.188;2022-12-29T14:43:18;12.70;99.90
31819;DHT22;18384;48.860;9.188;2022-12-29T14:45:55;12.80;99.90
31819;DHT22;18384;48.860;9.188;2022-12-29T14:48:35;12.70;99.90
31819;DHT22;18384;48.860;9.188;2022-12-29T14:51:20;12.60;99.90
31819;DHT22;18384;48.860;9.188;2022-12-29T14:53:52;12.60;99.90
31819;DHT22;18384;48.860;9.188;2022-12-29T14:56:24;12.60;99.90
31819;DHT22;18384;48.860;9.188;2022-12-29T14:59:02;12.60;99.90
31819;DHT22;18384;48.860;9.188;2022-12-29T15:01:49;12.60;99.90
31819;DHT22;18384;48.860;9.188;2022-12-29T15:04:24;12.60;99.90
31819;DHT22;18384;48.860;9.188;2022-12-29T15:06:53;14.60;99.90
31819;DHT22;18384;48.860;9.188;2022-12-29T15:13:25;12.60;99.90
31819;DHT22;18384;48.860;9.188;2022-12-29T15:15:59;12.60;99.90
31819;DHT22;18384;48.860;9.188;2022-12-29T15:18:30;12.60;99.90
31819;DHT22;18384;48.860;9.188;2022-12-29T15:21:00;12.50;99.90
31819;DHT22;18384;48.860;9.188;2022-12-29T15:23:32;14.00;99.90
31819;DHT22;18384;48.860;9.188;2022-12-29T15:26:05;12.40;99.90
31819;DHT22;18384;48.860;9.188;2022-12-29T15:28:44;12.40;99.90
31819;DHT22;18384;48.860;9.188;2022-12-29T15:31:22;12.50;99.90
31819;DHT22;18384;48.860;9.188;2022-12-29T15:33:55;12.40;99.90
31819;DHT22;18384;48.860;9.188;2022-12-29T15:36:29;14.20;99.90
31819;DHT22;18384;48.860;9.188;2022-12-29T15:39:23;12.40;99.90
31819;DHT22;18384;48.860;9.188;2022-12-29T15:47:14;12.00;99.90
31819;DHT22;18384;48.860;9.188;2022-12-29T15:49:52;11.40;99.90
31819;DHT22;18384;48.860;9.188;2022-12-29T15:52:23;11.30;99.90
31819;DHT22;18384;48.860;9.188;2022-12-29T15:54:51;11.20;99.90
31819;DHT22;18384;48.860;9.188;2022-12-29T15:57:30;11.10;99.90
31819;DHT22;18384;48.860;9.188;2022-12-29T16:00:02;11.00;99.90
31819;DHT22;18384;48.860;9.188;2022-12-29T16:02:29;10.90;99.90
31819;DHT22;18384;48.860;9.188;2022-12-29T16:04:56;11.00;99.90
31819;DHT22;18384;48.860;9.188;2022-12-29T16:07:28;11.00;99.90
31819;DHT22;18384;48.860;9.188;2022-12-29T16:09:58;11.00;99.90
31819;DHT22;18384;48.860;9.188;2022-12-29T16:12:31;11.10;99.90
31819;DHT22;18384;48.860;9.188;2022-12-29T16:15:04;11.10;99.90
31819;DHT22;18384;48.860;9.188;2022-12-29T16:17:41;11.10;99.90
31819;DHT22;18384;48.860;9.188;2022-12-29T16:20:39;11.10;99.90
31819;DHT22;18384;48.860;9.188;2022-12-29T16:23:22;11.20;99.90
31819;DHT22;18384;48.860;9.188;2022-12-29T16:25:52;11.20;99.90
31819;DHT22;18384;48.860;9.188;2022-12-29T16:28:39;11.20;99.90
31819;DHT22;18384;48.860;9.188;2022-12-29T16:31:19;11.10;99.90
31819;DHT22;18384;48.860;9.188;2022-12-29T16:33:54;11.10;99.90
31819;DHT22;18384;48.860;9.188;2022-12-29T16:36:23;11.10;99.90
31819;DHT22;18384;48.860;9.188;2022-12-29T16:39:34;11.10;99.90
31819;DHT22;18384;48.860;9.188;2022-12-29T16:46:21;11.20;99.90
31819;DHT22;18384;48.860;9.188;2022-12-29T16:48:53;11.20;99.90
31819;DHT22;18384;48.860;9.188;2022-12-29T16:51:33;11.20;99.90
31819;DHT22;18384;48.860;9.188;2022-12-29T16:54:01;11.20;99.90
31819;DHT22;18384;48.860;9.188;2022-12-29T16:56:34;11.20;99.90
31819;DHT22;18384;48.860;9.188;2022-12-29T17:02:33;11.20;99.90
31819;DHT22;18384;48.860;9.188;2022-12-29T17:05:08;11.20;99.90
31819;DHT22;18384;48.860;9.188;2022-12-29T17:07:39;11.20;99.90
31819;DHT22;18384;48.860;9.188;2022-12-29T17:10:05;11.10;99.90
31819;DHT22;18384;48.860;9.188;2022-12-29T17:12:31;11.20;99.90
31819;DHT22;18384;48.860;9.188;2022-12-29T17:15:01;11.20;99.90
31819;DHT22;18384;48.860;9.188;2022-12-29T17:17:44;11.20;99.90
31819;DHT22;18384;48.860;9.188;2022-12-29T17:21:13;11.20;99.90
31819;DHT22;18384;48.860;9.188;2022-12-29T17:23:39;11.10;99.90
31819;DHT22;18384;48.860;9.188;2022-12-29T17:26:07;11.30;99.90
31819;DHT22;18384;48.860;9.188;2022-12-29T17:28:33;11.30;99.90
31819;DHT22;18384;48.860;9.188;2022-12-29T17:31:02;11.30;99.90
31819;DHT22;18384;48.860;9.188;2022-12-29T17:33:35;11.30;99.90
31819;DHT22;18384;48.860;9.188;2022-12-29T17:36:02;11.30;99.90
31819;DHT22;18384;48.860;9.188;2022-12-29T17:38:30;11.30;99.90
31819;DHT22;18384;48.860;9.188;2022-12-29T17:40:58;11.30;99.90
31819;DHT22;18384;48.860;9.188;2022-12-29T17:43:25;11.30;99.90
31819;DHT22;18384;48.860;9.188;2022-12-29T17:45:54;11.30;99.90
31819;DHT22;18384;48.860;9.188;2022-12-29T17:48:21;11.30;99.90
31819;DHT22;18384;48.860;9.188;2022-12-29T17:50:50;11.30;99.90
31819;DHT22;18384;48.860;9.188;2022-12-29T17:53:23;11.30;99.90
31819;DHT22;18384;48.860;9.188;2022-12-29T17:55:50;11.30;99.90
31819;DHT22;18384;48.860;9.188;2022-12-29T17:58:19;11.30;99.90
31819;DHT22;18384;48.860;9.188;2022-12-29T18:00:49;11.20;99.90
31819;DHT22;18384;48.860;9.188;2022-12-29T18:03:27;11.10;99.90
31819;DHT22;18384;48.860;9.188;2022-12-29T18:05:55;11.10;99.90
31819;DHT22;18384;48.860;9.188;2022-12-29T18:08:21;11.10;99.90